sensor_id;sensor_type;location;lat;lon;timestamp;temperature;humidity
4695;DHT22;2361;49.540;8.390;2023-02-21T00:01:40;9.90;99.90
4695;DHT22;2361;49.540;8.390;2023-02-21T00:04:25;9.90;99.90
4695;DHT22;2361;49.540;8.390;2023-02-21T00:07:11;10.00;99.90
4695;DHT22;2361;49.540;8.390;2023-02-21T00:09:56;10.00;99.90
4695;DHT22;2361;49.540;8.390;2023-02-21T00:12:41;9.90;99.90
4695;DHT22;2361;49.540;8.390;2023-02-21T00:15:27;9.90;99.90
4695;DHT22;2361;49.540;8.390;2023-02-21T00:18:12;9.80;99.90
4695;DHT22;2361;49.540;8.390;2023-02-21T00:20:58;9.70;99.90
4695;DHT22;2361;49.540;8.390;2023-02-21T00:23:43;9.70;99.90
4695;DHT22;2361;49.540;8.390;2023-02-21T00:26:29;9.60;99.90
4695;DHT22;2361;49.540;8.390;2023-02-21T00:29:14;9.50;99.90
4695;DHT22;2361;49.540;8.390;2023-02-21T00:32:00;9.40;99.90
4695;DHT22;2361;49.540;8.390;2023-02-21T00:34:45;9.40;99.90
4695;DHT22;2361;49.540;8.390;2023-02-21T00:37:31;9.30;99.90
4695;DHT22;2361;49.540;8.390;2023-02-21T00:40:16;9.30;99.90
4695;DHT22;2361;49.540;8.390;2023-02-21T00:43:02;9.20;99.90
4695;DHT22;2361;49.540;8.390;2023-02-21T00:45:48;9.20;99.90
4695;DHT22;2361;49.540;8.390;2023-02-21T00:48:33;9.20;99.90
4695;DHT22;2361;49.540;8.390;2023-02-21T00:51:19;9.10;99.90
4695;DHT22;2361;49.540;8.390;2023-02-21T00:54:04;9.20;99.90
4695;DHT22;2361;49.540;8.390;2023-02-21T00:56:49;9.20;99.90
4695;DHT22;2361;49.540;8.390;2023-02-21T00:59:35;9.10;99.90
4695;DHT22;2361;49.540;8.390;2023-02-21T01:02:20;9.10;99.90
4695;DHT22;2361;49.540;8.390;2023-02-21T01:05:06;9.10;99.90
4695;DHT22;2361;49.540;8.390;2023-02-21T01:07:52;9.10;99.90
4695;DHT22;2361;49.540;8.390;2023-02-21T01:10:37;9.10;99.90
4695;DHT22;2361;49.540;8.390;2023-02-21T01:13:23;9.10;99.90
4695;DHT22;2361;49.540;8.390;2023-02-21T01:16:08;9.10;99.90
4695;DHT22;2361;49.540;8.390;2023-02-21T01:18:54;9.10;99.90
4695;DHT22;2361;49.540;8.390;2023-02-21T01:21:39;9.00;99.90
4695;DHT22;2361;49.540;8.390;2023-02-21T01:24:24;8.90;99.90
4695;DHT22;2361;49.540;8.390;2023-02-21T01:27:10;8.90;99.90
4695;DHT22;2361;49.540;8.390;2023-02-21T01:29:55;8.90;99.90
4695;DHT22;2361;49.540;8.390;2023-02-21T01:32:41;8.80;99.90
4695;DHT22;2361;49.540;8.390;2023-02-21T01:35:27;8.80;99.90
4695;DHT22;2361;49.540;8.390;2023-02-21T01:38:12;8.80;99.90
4695;DHT22;2361;49.540;8.390;2023-02-21T01:40:58;8.80;99.90
4695;DHT22;2361;49.540;8.390;2023-02-21T01:44:02;8.70;99.90
4695;DHT22;2361;49.540;8.390;2023-02-21T01:46:49;8.70;99.90
4695;DHT22;2361;49.540;8.390;2023-02-21T01:49:38;8.70;99.90
4695;DHT22;2361;49.540;8.390;2023-02-21T01:52:24;8.70;99.90
4695;DHT22;2361;49.540;8.390;2023-02-21T01:55:10;8.60;99.90
4695;DHT22;2361;49.540;8.390;2023-02-21T01:57:56;8.60;99.90
4695;DHT22;2361;49.540;8.390;2023-02-21T02:00:43;8.50;99.90
4695;DHT22;2361;49.540;8.390;2023-02-21T02:03:29;8.50;99.90
4695;DHT22;2361;49.540;8.390;2023-02-21T02:06:15;8.50;99.90
4695;DHT22;2361;49.540;8.390;2023-02-21T02:09:18;8.50;99.90
4695;DHT22;2361;49.540;8.390;2023-02-21T02:15:52;8.40;99.90
4695;DHT22;2361;49.540;8.390;2023-02-21T02:24:51;8.10;99.90
4695;DHT22;2361;49.540;8.390;2023-02-21T02:36:52;8.00;99.90
4695;DHT22;2361;49.540;8.390;2023-02-21T02:44:59;8.00;99.90
4695;DHT22;2361;49.540;8.390;2023-02-21T02:47:38;8.00;99.90
4695;DHT22;2361;49.540;8.390;2023-02-21T02:50:07;8.00;99.90
4695;DHT22;2361;49.540;8.390;2023-02-21T02:52:35;8.00;99.90
4695;DHT22;2361;49.540;8.390;2023-02-21T02:57:57;7.90;99.90
4695;DHT22;2361;49.540;8.390;2023-02-21T03:00:24;7.90;99.90
4695;DHT22;2361;49.540;8.390;2023-02-21T03:03:10;7.80;99.90
4695;DHT22;2361;49.540;8.390;2023-02-21T03:05:57;7.70;99.90
4695;DHT22;2361;49.540;8.390;2023-02-21T03:11:33;7.70;99.90
4695;DHT22;2361;49.540;8.390;2023-02-21T03:14:13;7.60;99.90
4695;DHT22;2361;49.540;8.390;2023-02-21T03:16:54;7.60;99.90
4695;DHT22;2361;49.540;8.390;2023-02-21T03:19:30;7.60;99.90
4695;DHT22;2361;49.540;8.390;2023-02-21T03:22:04;7.60;99.90
4695;DHT22;2361;49.540;8.390;2023-02-21T03:24:37;7.60;99.90
4695;DHT22;2361;49.540;8.390;2023-02-21T03:27:07;7.60;99.90
4695;DHT22;2361;49.540;8.390;2023-02-21T03:29:35;7.60;99.90
4695;DHT22;2361;49.540;8.390;2023-02-21T03:32:16;7.60;99.90
4695;DHT22;2361;49.540;8.390;2023-02-21T03:34:46;7.60;99.90
4695;DHT22;2361;49.540;8.390;2023-02-21T03:37:30;7.60;99.90
4695;DHT22;2361;49.540;8.390;2023-02-21T03:39:59;7.50;99.90
4695;DHT22;2361;49.540;8.390;2023-02-21T03:42:26;7.50;99.90
4695;DHT22;2361;49.540;8.390;2023-02-21T03:44:53;7.40;99.90
4695;DHT22;2361;49.540;8.390;2023-02-21T03:47:20;7.40;99.90
4695;DHT22;2361;49.540;8.390;2023-02-21T03:49:47;7.40;99.90
4695;DHT22;2361;49.540;8.390;2023-02-21T03:52:14;7.40;99.90
4695;DHT22;2361;49.540;8.390;2023-02-21T03:54:41;7.40;99.90
4695;DHT22;2361;49.540;8.390;2023-02-21T03:57:08;7.40;99.90
4695;DHT22;2361;49.540;8.390;2023-02-21T03:59:35;7.40;99.90
4695;DHT22;2361;49.540;8.390;2023-02-21T04:02:02;7.40;99.90
4695;DHT22;2361;49.540;8.390;2023-02-21T04:04:30;7.40;99.90
4695;DHT22;2361;49.540;8.390;2023-02-21T04:06:57;7.40;99.90
4695;DHT22;2361;49.540;8.390;2023-02-21T04:09:24;7.30;99.90
4695;DHT22;2361;49.540;8.390;2023-02-21T04:11:52;7.30;99.90
4695;DHT22;2361;49.540;8.390;2023-02-21T04:14:19;7.30;99.90
4695;DHT22;2361;49.540;8.390;2023-02-21T04:16:46;7.30;99.90
4695;DHT22;2361;49.540;8.390;2023-02-21T04:19:13;7.30;99.90
4695;DHT22;2361;49.540;8.390;2023-02-21T04:21:40;7.30;99.90
4695;DHT22;2361;49.540;8.390;2023-02-21T04:24:07;7.30;99.90
4695;DHT22;2361;49.540;8.390;2023-02-21T04:26:34;7.40;99.90
4695;DHT22;2361;49.540;8.390;2023-02-21T04:29:01;7.40;99.90
4695;DHT22;2361;49.540;8.390;2023-02-21T04:31:31;7.40;99.90
4695;DHT22;2361;49.540;8.390;2023-02-21T04:33:59;7.30;99.90
4695;DHT22;2361;49.540;8.390;2023-02-21T04:36:37;7.30;99.90
4695;DHT22;2361;49.540;8.390;2023-02-21T04:39:08;7.30;99.90
4695;DHT22;2361;49.540;8.390;2023-02-21T04:41:35;7.30;99.90
4695;DHT22;2361;49.540;8.390;2023-02-21T04:44:02;7.30;99.90
4695;DHT22;2361;49.540;8.390;2023-02-21T04:46:29;7.30;99.90
4695;DHT22;2361;49.540;8.390;2023-02-21T04:48:56;7.30;99.90
4695;DHT22;2361;49.540;8.390;2023-02-21T04:51:24;7.20;99.90
4695;DHT22;2361;49.540;8.390;2023-02-21T04:53:53;7.20;99.90
4695;DHT22;2361;49.540;8.390;2023-02-21T04:56:25;7.20;99.90
4695;DHT22;2361;49.540;8.390;2023-02-21T04:59:00;7.10;99.90
4695;DHT22;2361;49.540;8.390;2023-02-21T05:01:29;7.00;99.90
4695;DHT22;2361;49.540;8.390;2023-02-21T05:03:58;7.00;99.90
4695;DHT22;2361;49.540;8.390;2023-02-21T05:06:30;6.90;99.90
4695;DHT22;2361;49.540;8.390;2023-02-21T05:08:58;6.90;99.90
4695;DHT22;2361;49.540;8.390;2023-02-21T05:11:26;6.90;99.90
4695;DHT22;2361;49.540;8.390;2023-02-21T05:13:53;6.90;99.90
4695;DHT22;2361;49.540;8.390;2023-02-21T05:16:20;6.90;99.90
4695;DHT22;2361;49.540;8.390;2023-02-21T05:18:48;6.90;99.90
4695;DHT22;2361;49.540;8.390;2023-02-21T05:21:16;6.90;99.90
4695;DHT22;2361;49.540;8.390;2023-02-21T05:23:43;6.90;99.90
4695;DHT22;2361;49.540;8.390;2023-02-21T05:26:26;6.90;99.90
4695;DHT22;2361;49.540;8.390;2023-02-21T05:28:57;6.90;99.90
4695;DHT22;2361;49.540;8.390;2023-02-21T05:31:23;7.00;99.90
4695;DHT22;2361;49.540;8.390;2023-02-21T05:33:51;7.00;99.90
4695;DHT22;2361;49.540;8.390;2023-02-21T05:36:18;7.00;99.90
4695;DHT22;2361;49.540;8.390;2023-02-21T05:38:49;7.00;99.90
4695;DHT22;2361;49.540;8.390;2023-02-21T05:41:18;6.90;99.90
4695;DHT22;2361;49.540;8.390;2023-02-21T05:43:46;6.90;99.90
4695;DHT22;2361;49.540;8.390;2023-02-21T05:46:29;6.90;99.90
4695;DHT22;2361;49.540;8.390;2023-02-21T05:48:59;6.90;99.90
4695;DHT22;2361;49.540;8.390;2023-02-21T05:51:30;6.90;99.90
4695;DHT22;2361;49.540;8.390;2023-02-21T05:53:59;6.90;99.90
4695;DHT22;2361;49.540;8.390;2023-02-21T05:56:26;6.90;99.90
4695;DHT22;2361;49.540;8.390;2023-02-21T05:58:53;6.90;99.90
4695;DHT22;2361;49.540;8.390;2023-02-21T06:01:20;6.90;99.90
4695;DHT22;2361;49.540;8.390;2023-02-21T06:03:47;6.90;99.90
4695;DHT22;2361;49.540;8.390;2023-02-21T06:06:16;6.90;99.90
4695;DHT22;2361;49.540;8.390;2023-02-21T06:08:47;6.90;99.90
4695;DHT22;2361;49.540;8.390;2023-02-21T06:11:25;6.90;99.90
4695;DHT22;2361;49.540;8.390;2023-02-21T06:13:55;6.90;99.90
4695;DHT22;2361;49.540;8.390;2023-02-21T06:16:23;6.80;99.90
4695;DHT22;2361;49.540;8.390;2023-02-21T06:18:53;6.80;99.90
4695;DHT22;2361;49.540;8.390;2023-02-21T06:21:21;6.70;99.90
4695;DHT22;2361;49.540;8.390;2023-02-21T06:23:48;6.70;99.90
4695;DHT22;2361;49.540;8.390;2023-02-21T06:26:16;6.60;99.90
4695;DHT22;2361;49.540;8.390;2023-02-21T06:28:44;6.60;99.90
4695;DHT22;2361;49.540;8.390;2023-02-21T06:31:11;6.60;99.90
4695;DHT22;2361;49.540;8.390;2023-02-21T06:33:38;6.50;99.90
4695;DHT22;2361;49.540;8.390;2023-02-21T06:36:07;6.50;99.90
4695;DHT22;2361;49.540;8.390;2023-02-21T06:38:37;6.60;99.90
4695;DHT22;2361;49.540;8.390;2023-02-21T06:41:08;6.60;99.90
4695;DHT22;2361;49.540;8.390;2023-02-21T06:43:35;6.70;99.90
4695;DHT22;2361;49.540;8.390;2023-02-21T06:46:02;6.70;99.90
4695;DHT22;2361;49.540;8.390;2023-02-21T06:48:30;6.80;99.90
4695;DHT22;2361;49.540;8.390;2023-02-21T06:50:57;6.90;99.90
4695;DHT22;2361;49.540;8.390;2023-02-21T06:53:24;7.00;99.90
4695;DHT22;2361;49.540;8.390;2023-02-21T06:55:51;7.20;99.90
4695;DHT22;2361;49.540;8.390;2023-02-21T06:58:18;7.60;99.90
4695;DHT22;2361;49.540;8.390;2023-02-21T07:00:45;8.20;99.90
4695;DHT22;2361;49.540;8.390;2023-02-21T07:03:12;8.90;99.90
4695;DHT22;2361;49.540;8.390;2023-02-21T07:05:39;9.60;99.90
4695;DHT22;2361;49.540;8.390;2023-02-21T07:08:06;10.40;99.90
4695;DHT22;2361;49.540;8.390;2023-02-21T07:10:33;11.10;99.90
4695;DHT22;2361;49.540;8.390;2023-02-21T07:13:00;11.80;99.90
4695;DHT22;2361;49.540;8.390;2023-02-21T07:15:27;12.40;99.90
4695;DHT22;2361;49.540;8.390;2023-02-21T07:17:54;13.00;99.90
4695;DHT22;2361;49.540;8.390;2023-02-21T07:20:21;13.60;99.90
4695;DHT22;2361;49.540;8.390;2023-02-21T07:22:48;14.00;99.90
4695;DHT22;2361;49.540;8.390;2023-02-21T07:25:17;14.40;99.90
4695;DHT22;2361;49.540;8.390;2023-02-21T07:27:48;14.90;99.90
4695;DHT22;2361;49.540;8.390;2023-02-21T07:30:16;15.40;99.90
4695;DHT22;2361;49.540;8.390;2023-02-21T07:32:43;16.00;99.90
4695;DHT22;2361;49.540;8.390;2023-02-21T07:35:10;16.50;99.90
4695;DHT22;2361;49.540;8.390;2023-02-21T07:37:37;16.90;98.80
4695;DHT22;2361;49.540;8.390;2023-02-21T07:40:05;17.40;97.70
4695;DHT22;2361;49.540;8.390;2023-02-21T07:42:33;17.90;96.20
4695;DHT22;2361;49.540;8.390;2023-02-21T07:45:00;18.40;94.30
4695;DHT22;2361;49.540;8.390;2023-02-21T07:47:27;18.50;92.90
4695;DHT22;2361;49.540;8.390;2023-02-21T07:49:54;19.00;92.10
4695;DHT22;2361;49.540;8.390;2023-02-21T07:52:21;19.60;90.40
4695;DHT22;2361;49.540;8.390;2023-02-21T07:54:48;20.20;87.40
4695;DHT22;2361;49.540;8.390;2023-02-21T07:57:16;20.80;83.90
4695;DHT22;2361;49.540;8.390;2023-02-21T07:59:43;21.30;80.00
4695;DHT22;2361;49.540;8.390;2023-02-21T08:02:11;21.70;76.30
4695;DHT22;2361;49.540;8.390;2023-02-21T08:04:39;22.00;74.30
4695;DHT22;2361;49.540;8.390;2023-02-21T08:07:07;22.60;73.00
4695;DHT22;2361;49.540;8.390;2023-02-21T08:09:35;23.40;70.50
4695;DHT22;2361;49.540;8.390;2023-02-21T08:12:03;23.90;66.60
4695;DHT22;2361;49.540;8.390;2023-02-21T08:14:30;24.00;65.20
4695;DHT22;2361;49.540;8.390;2023-02-21T08:17:00;24.40;63.90
4695;DHT22;2361;49.540;8.390;2023-02-21T08:19:26;25.00;62.40
4695;DHT22;2361;49.540;8.390;2023-02-21T08:21:54;25.40;61.10
4695;DHT22;2361;49.540;8.390;2023-02-21T08:24:21;25.60;59.60
4695;DHT22;2361;49.540;8.390;2023-02-21T08:26:48;25.90;59.00
4695;DHT22;2361;49.540;8.390;2023-02-21T08:29:15;26.20;58.30
4695;DHT22;2361;49.540;8.390;2023-02-21T08:31:43;26.50;57.10
4695;DHT22;2361;49.540;8.390;2023-02-21T08:34:11;26.40;56.70
4695;DHT22;2361;49.540;8.390;2023-02-21T08:36:40;26.50;56.30
4695;DHT22;2361;49.540;8.390;2023-02-21T08:39:09;26.70;55.70
4695;DHT22;2361;49.540;8.390;2023-02-21T08:41:37;27.30;54.90
4695;DHT22;2361;49.540;8.390;2023-02-21T08:44:06;27.70;54.40
4695;DHT22;2361;49.540;8.390;2023-02-21T08:46:33;28.40;53.40
4695;DHT22;2361;49.540;8.390;2023-02-21T08:49:02;29.10;52.50
4695;DHT22;2361;49.540;8.390;2023-02-21T08:51:31;29.70;51.30
4695;DHT22;2361;49.540;8.390;2023-02-21T08:53:59;30.40;50.40
4695;DHT22;2361;49.540;8.390;2023-02-21T08:56:27;30.80;49.60
4695;DHT22;2361;49.540;8.390;2023-02-21T08:58:54;31.10;48.90
4695;DHT22;2361;49.540;8.390;2023-02-21T09:01:22;31.50;48.40
4695;DHT22;2361;49.540;8.390;2023-02-21T09:03:50;31.90;47.80
4695;DHT22;2361;49.540;8.390;2023-02-21T09:06:17;32.10;46.90
4695;DHT22;2361;49.540;8.390;2023-02-21T09:08:44;32.50;46.70
4695;DHT22;2361;49.540;8.390;2023-02-21T09:11:11;32.70;46.10
4695;DHT22;2361;49.540;8.390;2023-02-21T09:13:38;33.00;45.70
4695;DHT22;2361;49.540;8.390;2023-02-21T09:16:05;32.90;45.60
4695;DHT22;2361;49.540;8.390;2023-02-21T09:18:32;33.10;45.30
4695;DHT22;2361;49.540;8.390;2023-02-21T09:20:59;33.60;45.00
4695;DHT22;2361;49.540;8.390;2023-02-21T09:23:28;34.20;44.50
4695;DHT22;2361;49.540;8.390;2023-02-21T09:25:59;34.60;43.90
4695;DHT22;2361;49.540;8.390;2023-02-21T09:28:25;34.80;43.30
4695;DHT22;2361;49.540;8.390;2023-02-21T09:30:54;34.70;43.00
4695;DHT22;2361;49.540;8.390;2023-02-21T09:33:21;34.70;43.10
4695;DHT22;2361;49.540;8.390;2023-02-21T09:35:50;34.70;42.90
4695;DHT22;2361;49.540;8.390;2023-02-21T09:38:19;34.50;42.80
4695;DHT22;2361;49.540;8.390;2023-02-21T09:40:54;34.60;42.70
4695;DHT22;2361;49.540;8.390;2023-02-21T09:43:42;35.00;42.60
4695;DHT22;2361;49.540;8.390;2023-02-21T09:49:06;35.10;42.10
4695;DHT22;2361;49.540;8.390;2023-02-21T09:51:58;35.10;41.90
4695;DHT22;2361;49.540;8.390;2023-02-21T09:54:35;35.20;41.90
4695;DHT22;2361;49.540;8.390;2023-02-21T09:57:08;35.40;41.40
4695;DHT22;2361;49.540;8.390;2023-02-21T09:59:38;35.50;41.30
4695;DHT22;2361;49.540;8.390;2023-02-21T10:10:31;36.70;40.20
4695;DHT22;2361;49.540;8.390;2023-02-21T10:13:37;36.90;40.30
4695;DHT22;2361;49.540;8.390;2023-02-21T10:16:19;37.20;40.00
4695;DHT22;2361;49.540;8.390;2023-02-21T10:19:03;37.40;39.70
4695;DHT22;2361;49.540;8.390;2023-02-21T10:21:41;37.50;39.60
4695;DHT22;2361;49.540;8.390;2023-02-21T10:24:20;37.70;39.10
4695;DHT22;2361;49.540;8.390;2023-02-21T10:26:58;37.60;39.30
4695;DHT22;2361;49.540;8.390;2023-02-21T10:32:23;37.50;39.10
4695;DHT22;2361;49.540;8.390;2023-02-21T10:34:51;37.30;39.20
4695;DHT22;2361;49.540;8.390;2023-02-21T10:39:57;37.50;39.00
4695;DHT22;2361;49.540;8.390;2023-02-21T10:42:42;37.50;38.70
4695;DHT22;2361;49.540;8.390;2023-02-21T10:45:18;37.20;38.90
4695;DHT22;2361;49.540;8.390;2023-02-21T10:50:48;36.10;39.30
4695;DHT22;2361;49.540;8.390;2023-02-21T10:53:28;35.40;39.70
4695;DHT22;2361;49.540;8.390;2023-02-21T10:58:49;32.80;41.40
4695;DHT22;2361;49.540;8.390;2023-02-21T11:03:58;28.60;45.70
4695;DHT22;2361;49.540;8.390;2023-02-21T11:06:38;26.70;46.90
4695;DHT22;2361;49.540;8.390;2023-02-21T11:09:32;24.40;49.50
4695;DHT22;2361;49.540;8.390;2023-02-21T11:12:25;22.50;52.50
4695;DHT22;2361;49.540;8.390;2023-02-21T11:17:30;20.10;57.60
4695;DHT22;2361;49.540;8.390;2023-02-21T11:27:34;17.50;62.80
4695;DHT22;2361;49.540;8.390;2023-02-21T11:30:13;17.20;64.30
4695;DHT22;2361;49.540;8.390;2023-02-21T11:32:46;16.90;65.20
4695;DHT22;2361;49.540;8.390;2023-02-21T11:35:26;16.40;66.70
4695;DHT22;2361;49.540;8.390;2023-02-21T11:38:11;16.10;68.00
4695;DHT22;2361;49.540;8.390;2023-02-21T11:41:13;15.80;70.00
4695;DHT22;2361;49.540;8.390;2023-02-21T11:43:50;15.50;71.40
4695;DHT22;2361;49.540;8.390;2023-02-21T11:46:43;15.40;72.90
4695;DHT22;2361;49.540;8.390;2023-02-21T11:52:21;15.20;78.30
4695;DHT22;2361;49.540;8.390;2023-02-21T11:54:55;15.10;82.30
4695;DHT22;2361;49.540;8.390;2023-02-21T12:06:42;14.80;91.60
4695;DHT22;2361;49.540;8.390;2023-02-21T12:12:28;14.70;93.10
4695;DHT22;2361;49.540;8.390;2023-02-21T12:15:29;14.70;94.00
4695;DHT22;2361;49.540;8.390;2023-02-21T12:27:07;14.60;96.90
4695;DHT22;2361;49.540;8.390;2023-02-21T12:30:01;14.70;97.50
4695;DHT22;2361;49.540;8.390;2023-02-21T12:32:50;14.60;98.20
4695;DHT22;2361;49.540;8.390;2023-02-21T12:35:38;14.50;99.20
4695;DHT22;2361;49.540;8.390;2023-02-21T12:44:00;14.70;99.90
4695;DHT22;2361;49.540;8.390;2023-02-21T12:46:50;14.60;99.90
4695;DHT22;2361;49.540;8.390;2023-02-21T12:52:27;14.60;99.90
4695;DHT22;2361;49.540;8.390;2023-02-21T12:58:10;14.70;99.90
4695;DHT22;2361;49.540;8.390;2023-02-21T13:01:43;14.90;99.90
4695;DHT22;2361;49.540;8.390;2023-02-21T13:04:23;14.80;99.90
4695;DHT22;2361;49.540;8.390;2023-02-21T13:10:44;14.90;99.90
4695;DHT22;2361;49.540;8.390;2023-02-21T13:13:19;14.90;99.90
4695;DHT22;2361;49.540;8.390;2023-02-21T13:15:49;14.90;99.90
4695;DHT22;2361;49.540;8.390;2023-02-21T13:18:26;14.90;99.90
4695;DHT22;2361;49.540;8.390;2023-02-21T13:28:08;15.00;99.90
4695;DHT22;2361;49.540;8.390;2023-02-21T13:30:56;15.00;99.90
4695;DHT22;2361;49.540;8.390;2023-02-21T13:33:29;15.00;99.90
4695;DHT22;2361;49.540;8.390;2023-02-21T13:41:29;15.10;99.90
4695;DHT22;2361;49.540;8.390;2023-02-21T13:43:59;15.00;99.90
4695;DHT22;2361;49.540;8.390;2023-02-21T13:57:39;15.20;99.90
4695;DHT22;2361;49.540;8.390;2023-02-21T14:10:48;15.30;99.90
4695;DHT22;2361;49.540;8.390;2023-02-21T14:21:15;15.30;99.90
4695;DHT22;2361;49.540;8.390;2023-02-21T14:23:51;15.30;99.90
4695;DHT22;2361;49.540;8.390;2023-02-21T14:37:27;15.50;99.90
4695;DHT22;2361;49.540;8.390;2023-02-21T14:51:43;15.50;99.90
4695;DHT22;2361;49.540;8.390;2023-02-21T14:58:25;15.60;99.70
4695;DHT22;2361;49.540;8.390;2023-02-21T15:01:07;15.50;99.60
4695;DHT22;2361;49.540;8.390;2023-02-21T15:03:53;15.40;99.60
4695;DHT22;2361;49.540;8.390;2023-02-21T15:06:25;15.40;99.90
4695;DHT22;2361;49.540;8.390;2023-02-21T15:08:53;15.30;99.70
4695;DHT22;2361;49.540;8.390;2023-02-21T15:11:33;15.40;99.60
4695;DHT22;2361;49.540;8.390;2023-02-21T15:14:24;15.40;99.30
4695;DHT22;2361;49.540;8.390;2023-02-21T15:16:55;15.40;99.40
4695;DHT22;2361;49.540;8.390;2023-02-21T15:19:30;15.30;99.30
4695;DHT22;2361;49.540;8.390;2023-02-21T15:22:22;15.40;99.10
4695;DHT22;2361;49.540;8.390;2023-02-21T15:27:57;15.50;98.70
4695;DHT22;2361;49.540;8.390;2023-02-21T15:30:38;15.50;98.70
4695;DHT22;2361;49.540;8.390;2023-02-21T15:33:18;15.40;98.70
4695;DHT22;2361;49.540;8.390;2023-02-21T15:35:54;15.40;98.60
4695;DHT22;2361;49.540;8.390;2023-02-21T15:38:32;15.40;98.60
4695;DHT22;2361;49.540;8.390;2023-02-21T15:41:12;15.30;98.80
4695;DHT22;2361;49.540;8.390;2023-02-21T15:44:21;15.40;98.90
4695;DHT22;2361;49.540;8.390;2023-02-21T15:46:59;15.40;99.00
4695;DHT22;2361;49.540;8.390;2023-02-21T15:49:31;15.40;99.50
4695;DHT22;2361;49.540;8.390;2023-02-21T15:52:03;15.40;99.20
4695;DHT22;2361;49.540;8.390;2023-02-21T15:54:32;15.30;98.90
4695;DHT22;2361;49.540;8.390;2023-02-21T15:59:38;15.30;98.70
4695;DHT22;2361;49.540;8.390;2023-02-21T16:04:37;15.30;98.60
4695;DHT22;2361;49.540;8.390;2023-02-21T16:07:06;15.30;98.60
4695;DHT22;2361;49.540;8.390;2023-02-21T16:09:45;15.30;98.60
4695;DHT22;2361;49.540;8.390;2023-02-21T16:14:46;15.30;98.50
4695;DHT22;2361;49.540;8.390;2023-02-21T16:17:28;15.20;98.70
4695;DHT22;2361;49.540;8.390;2023-02-21T16:20:00;15.20;98.80
4695;DHT22;2361;49.540;8.390;2023-02-21T16:22:36;15.10;98.90
4695;DHT22;2361;49.540;8.390;2023-02-21T16:25:24;15.10;98.90
4695;DHT22;2361;49.540;8.390;2023-02-21T16:27:56;15.00;99.00
4695;DHT22;2361;49.540;8.390;2023-02-21T16:30:30;15.00;99.10
4695;DHT22;2361;49.540;8.390;2023-02-21T16:33:10;14.90;99.40
4695;DHT22;2361;49.540;8.390;2023-02-21T16:35:39;14.80;99.70
4695;DHT22;2361;49.540;8.390;2023-02-21T16:38:12;14.80;99.90
4695;DHT22;2361;49.540;8.390;2023-02-21T16:40:40;14.70;99.90
4695;DHT22;2361;49.540;8.390;2023-02-21T16:43:16;14.70;99.90
4695;DHT22;2361;49.540;8.390;2023-02-21T16:45:45;14.60;99.90
4695;DHT22;2361;49.540;8.390;2023-02-21T16:48:21;14.60;99.90
4695;DHT22;2361;49.540;8.390;2023-02-21T16:50:52;14.50;99.90
4695;DHT22;2361;49.540;8.390;2023-02-21T16:53:21;14.50;99.90
4695;DHT22;2361;49.540;8.390;2023-02-21T16:55:48;14.40;99.90
4695;DHT22;2361;49.540;8.390;2023-02-21T16:58:25;14.30;99.90
4695;DHT22;2361;49.540;8.390;2023-02-21T17:01:00;14.30;99.90
4695;DHT22;2361;49.540;8.390;2023-02-21T17:03:29;14.30;99.90
4695;DHT22;2361;49.540;8.390;2023-02-21T17:05:57;14.20;99.90
4695;DHT22;2361;49.540;8.390;2023-02-21T17:08:26;14.10;99.90
4695;DHT22;2361;49.540;8.390;2023-02-21T17:10:55;14.10;99.90
4695;DHT22;2361;49.540;8.390;2023-02-21T17:13:23;14.10;99.90
4695;DHT22;2361;49.540;8.390;2023-02-21T17:15:51;14.00;99.90
4695;DHT22;2361;49.540;8.390;2023-02-21T17:18:20;14.00;99.90
4695;DHT22;2361;49.540;8.390;2023-02-21T17:20:47;13.90;99.90
4695;DHT22;2361;49.540;8.390;2023-02-21T17:23:14;13.80;99.90
4695;DHT22;2361;49.540;8.390;2023-02-21T17:25:42;13.80;99.90
4695;DHT22;2361;49.540;8.390;2023-02-21T17:28:09;13.70;99.90
4695;DHT22;2361;49.540;8.390;2023-02-21T17:30:36;13.70;99.90
4695;DHT22;2361;49.540;8.390;2023-02-21T17:33:03;13.60;99.90
4695;DHT22;2361;49.540;8.390;2023-02-21T17:35:30;13.60;99.90
4695;DHT22;2361;49.540;8.390;2023-02-21T17:37:57;13.50;99.90
4695;DHT22;2361;49.540;8.390;2023-02-21T17:40:28;13.50;99.90
4695;DHT22;2361;49.540;8.390;2023-02-21T17:42:56;13.40;99.90
4695;DHT22;2361;49.540;8.390;2023-02-21T17:45:23;13.40;99.90
4695;DHT22;2361;49.540;8.390;2023-02-21T17:47:52;13.40;99.90
4695;DHT22;2361;49.540;8.390;2023-02-21T17:50:20;13.40;99.90
4695;DHT22;2361;49.540;8.390;2023-02-21T17:52:47;13.40;99.90
4695;DHT22;2361;49.540;8.390;2023-02-21T17:55:20;13.40;99.90
4695;DHT22;2361;49.540;8.390;2023-02-21T17:57:48;13.40;99.90
4695;DHT22;2361;49.540;8.390;2023-02-21T18:00:19;13.40;99.90
4695;DHT22;2361;49.540;8.390;2023-02-21T18:02:51;13.40;99.90
4695;DHT22;2361;49.540;8.390;2023-02-21T18:05:19;13.50;99.90
4695;DHT22;2361;49.540;8.390;2023-02-21T18:07:51;13.50;99.90
4695;DHT22;2361;49.540;8.390;2023-02-21T18:10:21;13.50;99.90
4695;DHT22;2361;49.540;8.390;2023-02-21T18:12:49;13.50;99.90
4695;DHT22;2361;49.540;8.390;2023-02-21T18:15:19;13.40;99.90
4695;DHT22;2361;49.540;8.390;2023-02-21T18:17:48;13.30;99.90
4695;DHT22;2361;49.540;8.390;2023-02-21T18:20:15;13.20;99.90
4695;DHT22;2361;49.540;8.390;2023-02-21T18:22:42;13.10;99.90
4695;DHT22;2361;49.540;8.390;2023-02-21T18:25:11;13.10;99.90
4695;DHT22;2361;49.540;8.390;2023-02-21T18:27:40;13.00;99.90
4695;DHT22;2361;49.540;8.390;2023-02-21T18:30:07;13.00;99.90
4695;DHT22;2361;49.540;8.390;2023-02-21T18:32:35;13.00;99.90
4695;DHT22;2361;49.540;8.390;2023-02-21T18:35:02;13.00;99.90
4695;DHT22;2361;49.540;8.390;2023-02-21T18:37:29;13.00;99.90
4695;DHT22;2361;49.540;8.390;2023-02-21T18:39:56;12.80;99.90
4695;DHT22;2361;49.540;8.390;2023-02-21T18:42:23;12.80;99.90
4695;DHT22;2361;49.540;8.390;2023-02-21T18:44:50;12.60;99.90
4695;DHT22;2361;49.540;8.390;2023-02-21T18:47:18;12.60;99.90
4695;DHT22;2361;49.540;8.390;2023-02-21T18:49:46;12.50;99.90
4695;DHT22;2361;49.540;8.390;2023-02-21T18:52:14;12.40;99.90
4695;DHT22;2361;49.540;8.390;2023-02-21T18:54:49;12.40;99.90
4695;DHT22;2361;49.540;8.390;2023-02-21T18:57:19;12.40;99.90
4695;DHT22;2361;49.540;8.390;2023-02-21T18:59:48;12.30;99.90
4695;DHT22;2361;49.540;8.390;2023-02-21T19:02:17;12.30;99.90
4695;DHT22;2361;49.540;8.390;2023-02-21T19:04:44;12.30;99.90
4695;DHT22;2361;49.540;8.390;2023-02-21T19:07:14;12.20;99.90
4695;DHT22;2361;49.540;8.390;2023-02-21T19:09:45;12.20;99.90
4695;DHT22;2361;49.540;8.390;2023-02-21T19:12:14;12.30;99.90
4695;DHT22;2361;49.540;8.390;2023-02-21T19:14:41;12.20;99.90
4695;DHT22;2361;49.540;8.390;2023-02-21T19:17:09;12.20;99.90
4695;DHT22;2361;49.540;8.390;2023-02-21T19:19:36;12.10;99.90
4695;DHT22;2361;49.540;8.390;2023-02-21T19:22:04;11.90;99.90
4695;DHT22;2361;49.540;8.390;2023-02-21T19:24:32;11.80;99.90
4695;DHT22;2361;49.540;8.390;2023-02-21T19:26:59;11.80;99.90
4695;DHT22;2361;49.540;8.390;2023-02-21T19:29:26;11.70;99.90
4695;DHT22;2361;49.540;8.390;2023-02-21T19:31:53;11.60;99.90
4695;DHT22;2361;49.540;8.390;2023-02-21T19:34:20;11.50;99.90
4695;DHT22;2361;49.540;8.390;2023-02-21T19:36:48;11.50;99.90
4695;DHT22;2361;49.540;8.390;2023-02-21T19:39:15;11.40;99.90
4695;DHT22;2361;49.540;8.390;2023-02-21T19:41:42;11.40;99.90
4695;DHT22;2361;49.540;8.390;2023-02-21T19:44:10;11.30;99.90
4695;DHT22;2361;49.540;8.390;2023-02-21T19:46:37;11.30;99.90
4695;DHT22;2361;49.540;8.390;2023-02-21T19:49:06;11.20;99.90
4695;DHT22;2361;49.540;8.390;2023-02-21T19:51:48;11.20;99.90
4695;DHT22;2361;49.540;8.390;2023-02-21T19:54:18;11.20;99.90